sensor_id;sensor_type;location;lat;lon;timestamp;temperature;humidity
19930;DHT22;10127;47.780;9.606;2023-11-19T00:00:25;7.50;99.90
19930;DHT22;10127;47.780;9.606;2023-11-19T00:02:51;7.50;99.90
19930;DHT22;10127;47.780;9.606;2023-11-19T00:05:17;7.50;99.90
19930;DHT22;10127;47.780;9.606;2023-11-19T00:07:42;7.60;99.90
19930;DHT22;10127;47.780;9.606;2023-11-19T00:10:12;7.50;99.90
19930;DHT22;10127;47.780;9.606;2023-11-19T00:12:43;7.60;99.90
19930;DHT22;10127;47.780;9.606;2023-11-19T00:15:09;7.60;99.90
19930;DHT22;10127;47.780;9.606;2023-11-19T00:17:37;7.60;99.90
19930;DHT22;10127;47.780;9.606;2023-11-19T00:20:06;7.70;99.90
19930;DHT22;10127;47.780;9.606;2023-11-19T00:22:31;7.70;99.90
19930;DHT22;10127;47.780;9.606;2023-11-19T00:24:58;7.60;99.90
19930;DHT22;10127;47.780;9.606;2023-11-19T00:27:23;7.60;99.90
19930;DHT22;10127;47.780;9.606;2023-11-19T00:29:49;7.70;99.90
19930;DHT22;10127;47.780;9.606;2023-11-19T00:32:14;7.60;99.90
19930;DHT22;10127;47.780;9.606;2023-11-19T00:34:40;7.70;99.90
19930;DHT22;10127;47.780;9.606;2023-11-19T00:37:06;7.70;99.90
19930;DHT22;10127;47.780;9.606;2023-11-19T00:39:32;7.60;99.90
19930;DHT22;10127;47.780;9.606;2023-11-19T00:41:58;7.70;99.90
19930;DHT22;10127;47.780;9.606;2023-11-19T00:44:23;7.70;99.90
19930;DHT22;10127;47.780;9.606;2023-11-19T00:46:49;7.70;99.90
19930;DHT22;10127;47.780;9.606;2023-11-19T00:49:14;7.60;99.90
19930;DHT22;10127;47.780;9.606;2023-11-19T00:51:40;7.60;99.90
19930;DHT22;10127;47.780;9.606;2023-11-19T00:54:06;7.60;99.90
19930;DHT22;10127;47.780;9.606;2023-11-19T00:56:32;7.60;99.90
19930;DHT22;10127;47.780;9.606;2023-11-19T00:58:57;7.60;99.90
19930;DHT22;10127;47.780;9.606;2023-11-19T01:01:23;7.60;99.90
19930;DHT22;10127;47.780;9.606;2023-11-19T01:03:48;7.60;99.90
19930;DHT22;10127;47.780;9.606;2023-11-19T01:06:14;7.50;99.90
19930;DHT22;10127;47.780;9.606;2023-11-19T01:08:42;7.60;99.90
19930;DHT22;10127;47.780;9.606;2023-11-19T01:11:19;7.60;99.90
19930;DHT22;10127;47.780;9.606;2023-11-19T01:13:46;7.60;99.90
19930;DHT22;10127;47.780;9.606;2023-11-19T01:16:12;7.60;99.90
19930;DHT22;10127;47.780;9.606;2023-11-19T01:18:38;7.60;99.90
19930;DHT22;10127;47.780;9.606;2023-11-19T01:21:04;7.60;99.90
19930;DHT22;10127;47.780;9.606;2023-11-19T01:23:30;7.60;99.90
19930;DHT22;10127;47.780;9.606;2023-11-19T01:25:56;7.60;99.90
19930;DHT22;10127;47.780;9.606;2023-11-19T01:28:21;7.60;99.90
19930;DHT22;10127;47.780;9.606;2023-11-19T01:30:47;7.60;99.90
19930;DHT22;10127;47.780;9.606;2023-11-19T01:33:15;7.70;99.90
19930;DHT22;10127;47.780;9.606;2023-11-19T01:35:41;7.70;99.90
19930;DHT22;10127;47.780;9.606;2023-11-19T01:38:06;7.80;99.90
19930;DHT22;10127;47.780;9.606;2023-11-19T01:40:34;7.80;99.90
19930;DHT22;10127;47.780;9.606;2023-11-19T01:42:59;7.80;99.90
19930;DHT22;10127;47.780;9.606;2023-11-19T01:45:30;7.80;99.90
19930;DHT22;10127;47.780;9.606;2023-11-19T01:48:00;7.80;99.90
19930;DHT22;10127;47.780;9.606;2023-11-19T01:50:28;7.80;99.90
19930;DHT22;10127;47.780;9.606;2023-11-19T01:52:54;7.70;99.90
19930;DHT22;10127;47.780;9.606;2023-11-19T01:55:23;7.70;99.90
19930;DHT22;10127;47.780;9.606;2023-11-19T01:57:49;7.70;99.90
19930;DHT22;10127;47.780;9.606;2023-11-19T02:00:16;7.70;99.90
19930;DHT22;10127;47.780;9.606;2023-11-19T02:02:46;7.70;99.90
19930;DHT22;10127;47.780;9.606;2023-11-19T02:05:13;7.80;99.90
19930;DHT22;10127;47.780;9.606;2023-11-19T02:07:39;7.80;99.90
19930;DHT22;10127;47.780;9.606;2023-11-19T02:10:05;7.80;99.90
19930;DHT22;10127;47.780;9.606;2023-11-19T02:12:38;7.80;99.90
19930;DHT22;10127;47.780;9.606;2023-11-19T02:15:04;7.80;99.90
19930;DHT22;10127;47.780;9.606;2023-11-19T02:17:30;7.80;99.90
19930;DHT22;10127;47.780;9.606;2023-11-19T02:20:06;7.70;99.90
19930;DHT22;10127;47.780;9.606;2023-11-19T02:22:37;7.70;99.90
19930;DHT22;10127;47.780;9.606;2023-11-19T02:25:09;7.70;99.90
19930;DHT22;10127;47.780;9.606;2023-11-19T02:28:01;7.80;99.90
19930;DHT22;10127;47.780;9.606;2023-11-19T02:30:27;7.70;99.90
19930;DHT22;10127;47.780;9.606;2023-11-19T02:32:57;7.70;99.90
19930;DHT22;10127;47.780;9.606;2023-11-19T02:35:27;7.80;99.90
19930;DHT22;10127;47.780;9.606;2023-11-19T02:37:56;7.80;99.90
19930;DHT22;10127;47.780;9.606;2023-11-19T02:40:22;7.80;99.90
19930;DHT22;10127;47.780;9.606;2023-11-19T02:42:50;7.90;99.90
19930;DHT22;10127;47.780;9.606;2023-11-19T02:45:16;7.90;99.90
19930;DHT22;10127;47.780;9.606;2023-11-19T02:47:42;7.90;99.90
19930;DHT22;10127;47.780;9.606;2023-11-19T02:50:09;8.00;99.90
19930;DHT22;10127;47.780;9.606;2023-11-19T02:52:39;8.00;99.90
19930;DHT22;10127;47.780;9.606;2023-11-19T02:55:05;8.00;99.90
19930;DHT22;10127;47.780;9.606;2023-11-19T02:57:35;8.00;99.90
19930;DHT22;10127;47.780;9.606;2023-11-19T03:00:00;8.00;99.90
19930;DHT22;10127;47.780;9.606;2023-11-19T03:02:26;8.00;99.90
19930;DHT22;10127;47.780;9.606;2023-11-19T03:04:59;8.00;99.90
19930;DHT22;10127;47.780;9.606;2023-11-19T03:07:25;8.00;99.90
19930;DHT22;10127;47.780;9.606;2023-11-19T03:09:50;8.00;99.90
19930;DHT22;10127;47.780;9.606;2023-11-19T03:12:16;8.00;99.90
19930;DHT22;10127;47.780;9.606;2023-11-19T03:14:42;7.90;99.90
19930;DHT22;10127;47.780;9.606;2023-11-19T03:17:07;7.90;99.90
19930;DHT22;10127;47.780;9.606;2023-11-19T03:19:35;7.80;99.90
19930;DHT22;10127;47.780;9.606;2023-11-19T03:22:01;7.80;99.90
19930;DHT22;10127;47.780;9.606;2023-11-19T03:24:27;7.80;99.90
19930;DHT22;10127;47.780;9.606;2023-11-19T03:26:52;7.80;99.90
19930;DHT22;10127;47.780;9.606;2023-11-19T03:29:18;7.80;99.90
19930;DHT22;10127;47.780;9.606;2023-11-19T03:31:44;7.90;99.90
19930;DHT22;10127;47.780;9.606;2023-11-19T03:34:12;7.90;99.90
19930;DHT22;10127;47.780;9.606;2023-11-19T03:36:38;8.00;99.90
19930;DHT22;10127;47.780;9.606;2023-11-19T03:39:04;8.10;99.90
19930;DHT22;10127;47.780;9.606;2023-11-19T03:41:29;8.10;99.90
19930;DHT22;10127;47.780;9.606;2023-11-19T03:43:56;8.10;99.90
19930;DHT22;10127;47.780;9.606;2023-11-19T03:46:21;8.10;99.90
19930;DHT22;10127;47.780;9.606;2023-11-19T03:48:48;8.10;99.90
19930;DHT22;10127;47.780;9.606;2023-11-19T03:51:14;8.10;99.90
19930;DHT22;10127;47.780;9.606;2023-11-19T03:53:47;8.20;99.90
19930;DHT22;10127;47.780;9.606;2023-11-19T03:56:12;8.20;99.90
19930;DHT22;10127;47.780;9.606;2023-11-19T03:58:39;8.20;99.90
19930;DHT22;10127;47.780;9.606;2023-11-19T04:01:05;8.10;99.90
19930;DHT22;10127;47.780;9.606;2023-11-19T04:03:31;8.10;99.90
19930;DHT22;10127;47.780;9.606;2023-11-19T04:05:56;8.10;99.90
19930;DHT22;10127;47.780;9.606;2023-11-19T04:08:22;8.10;99.90
19930;DHT22;10127;47.780;9.606;2023-11-19T04:10:48;8.20;99.90
19930;DHT22;10127;47.780;9.606;2023-11-19T04:13:14;8.20;99.90
19930;DHT22;10127;47.780;9.606;2023-11-19T04:15:39;8.20;99.90
19930;DHT22;10127;47.780;9.606;2023-11-19T04:18:05;8.20;99.90
19930;DHT22;10127;47.780;9.606;2023-11-19T04:20:31;8.20;99.90
19930;DHT22;10127;47.780;9.606;2023-11-19T04:22:57;8.20;99.90
19930;DHT22;10127;47.780;9.606;2023-11-19T04:25:23;8.10;99.90
19930;DHT22;10127;47.780;9.606;2023-11-19T04:27:51;8.20;99.90
19930;DHT22;10127;47.780;9.606;2023-11-19T04:30:17;8.20;99.90
19930;DHT22;10127;47.780;9.606;2023-11-19T04:32:44;8.20;99.90
19930;DHT22;10127;47.780;9.606;2023-11-19T04:35:09;8.20;99.90
19930;DHT22;10127;47.780;9.606;2023-11-19T04:37:36;8.20;99.90
19930;DHT22;10127;47.780;9.606;2023-11-19T04:40:02;8.20;99.90
19930;DHT22;10127;47.780;9.606;2023-11-19T04:42:27;8.20;99.90
19930;DHT22;10127;47.780;9.606;2023-11-19T04:44:53;8.30;99.90
19930;DHT22;10127;47.780;9.606;2023-11-19T04:47:18;8.30;99.90
19930;DHT22;10127;47.780;9.606;2023-11-19T04:49:44;8.30;99.90
19930;DHT22;10127;47.780;9.606;2023-11-19T04:52:09;8.30;99.90
19930;DHT22;10127;47.780;9.606;2023-11-19T04:54:35;8.30;99.90
19930;DHT22;10127;47.780;9.606;2023-11-19T04:57:00;8.30;99.90
19930;DHT22;10127;47.780;9.606;2023-11-19T04:59:26;8.30;99.90
19930;DHT22;10127;47.780;9.606;2023-11-19T05:01:53;8.40;99.90
19930;DHT22;10127;47.780;9.606;2023-11-19T05:04:18;8.40;99.90
19930;DHT22;10127;47.780;9.606;2023-11-19T05:06:44;8.40;99.90
19930;DHT22;10127;47.780;9.606;2023-11-19T05:09:09;8.30;99.90
19930;DHT22;10127;47.780;9.606;2023-11-19T05:11:37;8.30;99.90
19930;DHT22;10127;47.780;9.606;2023-11-19T05:14:04;8.30;99.90
19930;DHT22;10127;47.780;9.606;2023-11-19T05:16:30;8.40;99.90
19930;DHT22;10127;47.780;9.606;2023-11-19T05:18:56;8.40;99.90
19930;DHT22;10127;47.780;9.606;2023-11-19T05:21:21;8.40;99.90
19930;DHT22;10127;47.780;9.606;2023-11-19T05:23:47;8.40;99.90
19930;DHT22;10127;47.780;9.606;2023-11-19T05:26:20;8.50;99.90
19930;DHT22;10127;47.780;9.606;2023-11-19T05:28:45;8.60;99.90
19930;DHT22;10127;47.780;9.606;2023-11-19T05:31:11;8.60;99.90
19930;DHT22;10127;47.780;9.606;2023-11-19T05:33:37;8.60;99.90
19930;DHT22;10127;47.780;9.606;2023-11-19T05:36:03;8.60;99.90
19930;DHT22;10127;47.780;9.606;2023-11-19T05:38:29;8.60;99.90
19930;DHT22;10127;47.780;9.606;2023-11-19T05:40:55;8.60;99.90
19930;DHT22;10127;47.780;9.606;2023-11-19T05:43:21;8.70;99.90
19930;DHT22;10127;47.780;9.606;2023-11-19T05:45:47;8.80;99.90
19930;DHT22;10127;47.780;9.606;2023-11-19T05:48:12;8.80;99.90
19930;DHT22;10127;47.780;9.606;2023-11-19T05:50:38;8.90;99.90
19930;DHT22;10127;47.780;9.606;2023-11-19T05:53:04;8.90;99.90
19930;DHT22;10127;47.780;9.606;2023-11-19T05:55:38;9.00;99.90
19930;DHT22;10127;47.780;9.606;2023-11-19T05:58:11;8.90;99.90
19930;DHT22;10127;47.780;9.606;2023-11-19T06:00:40;9.00;99.90
19930;DHT22;10127;47.780;9.606;2023-11-19T06:03:06;9.00;99.90
19930;DHT22;10127;47.780;9.606;2023-11-19T06:05:32;9.10;99.90
19930;DHT22;10127;47.780;9.606;2023-11-19T06:07:58;9.10;99.90
19930;DHT22;10127;47.780;9.606;2023-11-19T06:10:24;9.10;99.90
19930;DHT22;10127;47.780;9.606;2023-11-19T06:13:00;9.10;99.90
19930;DHT22;10127;47.780;9.606;2023-11-19T06:15:26;9.10;99.90
19930;DHT22;10127;47.780;9.606;2023-11-19T06:17:54;9.10;99.90
19930;DHT22;10127;47.780;9.606;2023-11-19T06:20:20;9.10;99.90
19930;DHT22;10127;47.780;9.606;2023-11-19T06:22:46;9.10;99.90
19930;DHT22;10127;47.780;9.606;2023-11-19T06:25:12;9.10;99.90
19930;DHT22;10127;47.780;9.606;2023-11-19T06:27:40;9.20;99.90
19930;DHT22;10127;47.780;9.606;2023-11-19T06:30:07;9.20;99.90
19930;DHT22;10127;47.780;9.606;2023-11-19T06:32:32;9.20;99.90
19930;DHT22;10127;47.780;9.606;2023-11-19T06:34:58;9.20;99.90
19930;DHT22;10127;47.780;9.606;2023-11-19T06:37:23;9.30;99.90
19930;DHT22;10127;47.780;9.606;2023-11-19T06:39:49;9.30;99.90
19930;DHT22;10127;47.780;9.606;2023-11-19T06:42:15;9.40;99.90
19930;DHT22;10127;47.780;9.606;2023-11-19T06:44:40;9.40;99.90
19930;DHT22;10127;47.780;9.606;2023-11-19T06:47:06;9.40;99.90
19930;DHT22;10127;47.780;9.606;2023-11-19T06:49:32;9.40;99.90
19930;DHT22;10127;47.780;9.606;2023-11-19T06:51:58;9.40;99.90
19930;DHT22;10127;47.780;9.606;2023-11-19T06:54:24;9.50;99.90
19930;DHT22;10127;47.780;9.606;2023-11-19T06:56:49;9.50;99.90
19930;DHT22;10127;47.780;9.606;2023-11-19T06:59:15;9.60;99.90
19930;DHT22;10127;47.780;9.606;2023-11-19T07:01:40;9.60;99.90
19930;DHT22;10127;47.780;9.606;2023-11-19T07:04:11;9.70;99.90
19930;DHT22;10127;47.780;9.606;2023-11-19T07:06:38;9.70;99.90
19930;DHT22;10127;47.780;9.606;2023-11-19T07:09:06;9.70;99.90
19930;DHT22;10127;47.780;9.606;2023-11-19T07:11:39;9.80;99.90
19930;DHT22;10127;47.780;9.606;2023-11-19T07:14:11;9.80;99.90
19930;DHT22;10127;47.780;9.606;2023-11-19T07:16:37;9.80;99.90
19930;DHT22;10127;47.780;9.606;2023-11-19T07:19:12;9.80;99.90
19930;DHT22;10127;47.780;9.606;2023-11-19T07:21:41;9.80;99.90
19930;DHT22;10127;47.780;9.606;2023-11-19T07:24:09;9.80;99.90
19930;DHT22;10127;47.780;9.606;2023-11-19T07:26:35;9.90;99.90
19930;DHT22;10127;47.780;9.606;2023-11-19T07:29:02;9.90;99.90
19930;DHT22;10127;47.780;9.606;2023-11-19T07:31:28;9.90;99.90
19930;DHT22;10127;47.780;9.606;2023-11-19T07:33:53;10.00;99.90
19930;DHT22;10127;47.780;9.606;2023-11-19T07:36:19;10.00;99.90
19930;DHT22;10127;47.780;9.606;2023-11-19T07:38:45;10.00;99.90
19930;DHT22;10127;47.780;9.606;2023-11-19T07:41:11;10.10;99.90
19930;DHT22;10127;47.780;9.606;2023-11-19T07:43:45;10.10;99.90
19930;DHT22;10127;47.780;9.606;2023-11-19T07:46:12;10.10;99.90
19930;DHT22;10127;47.780;9.606;2023-11-19T07:48:39;10.20;99.90
19930;DHT22;10127;47.780;9.606;2023-11-19T07:51:04;10.20;99.90
19930;DHT22;10127;47.780;9.606;2023-11-19T07:53:30;10.30;99.90
19930;DHT22;10127;47.780;9.606;2023-11-19T07:55:56;10.30;99.90
19930;DHT22;10127;47.780;9.606;2023-11-19T07:58:21;10.40;99.90
19930;DHT22;10127;47.780;9.606;2023-11-19T08:00:54;10.40;99.90
19930;DHT22;10127;47.780;9.606;2023-11-19T08:03:19;10.40;99.90
19930;DHT22;10127;47.780;9.606;2023-11-19T08:05:58;10.40;99.90
19930;DHT22;10127;47.780;9.606;2023-11-19T08:08:23;10.40;99.90
19930;DHT22;10127;47.780;9.606;2023-11-19T08:10:58;10.40;99.90
19930;DHT22;10127;47.780;9.606;2023-11-19T08:13:24;10.40;99.90
19930;DHT22;10127;47.780;9.606;2023-11-19T08:15:50;10.40;99.90
19930;DHT22;10127;47.780;9.606;2023-11-19T08:18:16;10.40;99.90
19930;DHT22;10127;47.780;9.606;2023-11-19T08:20:43;10.50;99.90
19930;DHT22;10127;47.780;9.606;2023-11-19T08:23:10;10.50;99.90
19930;DHT22;10127;47.780;9.606;2023-11-19T08:25:35;10.50;99.90
19930;DHT22;10127;47.780;9.606;2023-11-19T08:28:01;10.60;99.90
19930;DHT22;10127;47.780;9.606;2023-11-19T08:30:29;10.50;99.90
19930;DHT22;10127;47.780;9.606;2023-11-19T08:32:54;10.50;99.90
19930;DHT22;10127;47.780;9.606;2023-11-19T08:35:20;10.50;99.90
19930;DHT22;10127;47.780;9.606;2023-11-19T08:37:46;10.50;99.90
19930;DHT22;10127;47.780;9.606;2023-11-19T08:40:12;10.50;99.90
19930;DHT22;10127;47.780;9.606;2023-11-19T08:42:40;10.50;99.90
19930;DHT22;10127;47.780;9.606;2023-11-19T08:45:07;10.50;99.90
19930;DHT22;10127;47.780;9.606;2023-11-19T08:47:32;10.50;99.90
19930;DHT22;10127;47.780;9.606;2023-11-19T08:49:58;10.50;99.90
19930;DHT22;10127;47.780;9.606;2023-11-19T08:52:23;10.60;99.90
19930;DHT22;10127;47.780;9.606;2023-11-19T08:54:49;10.60;99.90
19930;DHT22;10127;47.780;9.606;2023-11-19T08:57:15;10.60;99.90
19930;DHT22;10127;47.780;9.606;2023-11-19T08:59:40;10.70;99.90
19930;DHT22;10127;47.780;9.606;2023-11-19T09:02:06;10.70;99.90
19930;DHT22;10127;47.780;9.606;2023-11-19T09:04:32;10.70;99.90
19930;DHT22;10127;47.780;9.606;2023-11-19T09:06:58;10.70;99.90
19930;DHT22;10127;47.780;9.606;2023-11-19T09:09:24;10.80;99.90
19930;DHT22;10127;47.780;9.606;2023-11-19T09:11:50;10.80;99.90
19930;DHT22;10127;47.780;9.606;2023-11-19T09:14:16;10.80;99.90
19930;DHT22;10127;47.780;9.606;2023-11-19T09:16:43;10.90;99.90
19930;DHT22;10127;47.780;9.606;2023-11-19T09:19:09;10.90;99.90
19930;DHT22;10127;47.780;9.606;2023-11-19T09:21:34;10.90;99.90
19930;DHT22;10127;47.780;9.606;2023-11-19T09:24:04;10.90;99.90
19930;DHT22;10127;47.780;9.606;2023-11-19T09:26:30;11.00;99.90
19930;DHT22;10127;47.780;9.606;2023-11-19T09:28:56;11.00;99.90
19930;DHT22;10127;47.780;9.606;2023-11-19T09:31:21;11.00;99.90
19930;DHT22;10127;47.780;9.606;2023-11-19T09:33:47;11.10;99.90
19930;DHT22;10127;47.780;9.606;2023-11-19T09:36:13;11.10;99.90
19930;DHT22;10127;47.780;9.606;2023-11-19T09:38:43;11.10;99.90
19930;DHT22;10127;47.780;9.606;2023-11-19T09:41:09;11.10;99.90
19930;DHT22;10127;47.780;9.606;2023-11-19T09:43:41;11.10;99.90
19930;DHT22;10127;47.780;9.606;2023-11-19T09:46:08;11.20;99.90
19930;DHT22;10127;47.780;9.606;2023-11-19T09:48:37;11.30;99.90
19930;DHT22;10127;47.780;9.606;2023-11-19T09:51:04;11.40;99.90
19930;DHT22;10127;47.780;9.606;2023-11-19T09:53:30;11.40;99.90
19930;DHT22;10127;47.780;9.606;2023-11-19T09:55:59;11.40;99.90
19930;DHT22;10127;47.780;9.606;2023-11-19T09:58:26;11.40;99.90
19930;DHT22;10127;47.780;9.606;2023-11-19T10:00:51;11.40;99.90
19930;DHT22;10127;47.780;9.606;2023-11-19T10:03:18;11.40;99.90
19930;DHT22;10127;47.780;9.606;2023-11-19T10:05:43;11.50;99.90
19930;DHT22;10127;47.780;9.606;2023-11-19T10:08:09;11.50;99.90
19930;DHT22;10127;47.780;9.606;2023-11-19T10:10:36;11.50;99.90
19930;DHT22;10127;47.780;9.606;2023-11-19T10:13:03;11.50;99.90
19930;DHT22;10127;47.780;9.606;2023-11-19T10:15:33;11.60;99.90
19930;DHT22;10127;47.780;9.606;2023-11-19T10:18:00;11.60;99.90
19930;DHT22;10127;47.780;9.606;2023-11-19T10:20:26;11.70;99.90
19930;DHT22;10127;47.780;9.606;2023-11-19T10:22:58;11.70;99.90
19930;DHT22;10127;47.780;9.606;2023-11-19T10:25:28;11.80;99.90
19930;DHT22;10127;47.780;9.606;2023-11-19T10:27:54;11.80;99.90
19930;DHT22;10127;47.780;9.606;2023-11-19T10:30:22;11.90;99.90
19930;DHT22;10127;47.780;9.606;2023-11-19T10:35:53;12.10;99.90
19930;DHT22;10127;47.780;9.606;2023-11-19T10:38:19;12.10;99.90
19930;DHT22;10127;47.780;9.606;2023-11-19T10:40:44;12.20;99.90
19930;DHT22;10127;47.780;9.606;2023-11-19T10:43:10;12.30;99.90
19930;DHT22;10127;47.780;9.606;2023-11-19T10:45:37;12.30;99.90
19930;DHT22;10127;47.780;9.606;2023-11-19T10:48:04;12.20;99.90
19930;DHT22;10127;47.780;9.606;2023-11-19T10:50:33;12.20;99.90
19930;DHT22;10127;47.780;9.606;2023-11-19T10:53:00;12.20;99.90
19930;DHT22;10127;47.780;9.606;2023-11-19T10:55:32;12.20;99.90
19930;DHT22;10127;47.780;9.606;2023-11-19T10:58:02;12.20;99.90
19930;DHT22;10127;47.780;9.606;2023-11-19T11:00:50;12.20;99.90
19930;DHT22;10127;47.780;9.606;2023-11-19T11:03:25;12.30;99.90
19930;DHT22;10127;47.780;9.606;2023-11-19T11:05:53;12.30;99.90
19930;DHT22;10127;47.780;9.606;2023-11-19T11:08:19;12.30;99.90
19930;DHT22;10127;47.780;9.606;2023-11-19T11:10:54;12.40;99.90
19930;DHT22;10127;47.780;9.606;2023-11-19T11:13:22;12.40;99.90
19930;DHT22;10127;47.780;9.606;2023-11-19T11:15:49;12.40;99.90
19930;DHT22;10127;47.780;9.606;2023-11-19T11:18:15;12.40;99.90
19930;DHT22;10127;47.780;9.606;2023-11-19T11:20:44;12.40;99.90
19930;DHT22;10127;47.780;9.606;2023-11-19T11:37:18;12.50;99.90
19930;DHT22;10127;47.780;9.606;2023-11-19T11:39:49;12.60;99.90
19930;DHT22;10127;47.780;9.606;2023-11-19T11:50:11;12.60;99.90
19930;DHT22;10127;47.780;9.606;2023-11-19T11:55:35;12.80;99.90
19930;DHT22;10127;47.780;9.606;2023-11-19T11:58:02;12.90;99.90
19930;DHT22;10127;47.780;9.606;2023-11-19T12:00:31;12.90;99.90
19930;DHT22;10127;47.780;9.606;2023-11-19T12:02:59;13.10;99.90
19930;DHT22;10127;47.780;9.606;2023-11-19T12:05:25;13.20;99.90
19930;DHT22;10127;47.780;9.606;2023-11-19T12:08:01;13.20;99.90
19930;DHT22;10127;47.780;9.606;2023-11-19T12:10:32;13.10;99.90
19930;DHT22;10127;47.780;9.606;2023-11-19T12:13:01;13.20;99.90
19930;DHT22;10127;47.780;9.606;2023-11-19T12:15:27;13.30;99.90
19930;DHT22;10127;47.780;9.606;2023-11-19T12:17:54;13.20;99.90
19930;DHT22;10127;47.780;9.606;2023-11-19T12:20:22;13.30;99.90
19930;DHT22;10127;47.780;9.606;2023-11-19T12:22:48;13.10;99.90
19930;DHT22;10127;47.780;9.606;2023-11-19T12:25:15;13.20;99.90
19930;DHT22;10127;47.780;9.606;2023-11-19T12:27:49;13.10;99.90
19930;DHT22;10127;47.780;9.606;2023-11-19T12:30:25;13.20;99.90
19930;DHT22;10127;47.780;9.606;2023-11-19T12:32:51;13.50;99.90
19930;DHT22;10127;47.780;9.606;2023-11-19T12:35:19;13.70;99.90
19930;DHT22;10127;47.780;9.606;2023-11-19T12:37:50;13.70;99.90
19930;DHT22;10127;47.780;9.606;2023-11-19T12:40:20;13.70;99.90
19930;DHT22;10127;47.780;9.606;2023-11-19T12:42:51;13.70;99.90
19930;DHT22;10127;47.780;9.606;2023-11-19T12:45:17;13.70;99.90
19930;DHT22;10127;47.780;9.606;2023-11-19T12:47:43;13.70;99.90
19930;DHT22;10127;47.780;9.606;2023-11-19T12:50:10;13.80;99.90
19930;DHT22;10127;47.780;9.606;2023-11-19T12:52:37;13.80;99.90
19930;DHT22;10127;47.780;9.606;2023-11-19T12:55:29;13.70;99.90
19930;DHT22;10127;47.780;9.606;2023-11-19T12:57:55;13.80;99.90
19930;DHT22;10127;47.780;9.606;2023-11-19T13:00:22;13.90;99.90
19930;DHT22;10127;47.780;9.606;2023-11-19T13:02:53;13.80;99.90
19930;DHT22;10127;47.780;9.606;2023-11-19T13:08:06;13.50;99.90
19930;DHT22;10127;47.780;9.606;2023-11-19T13:10:33;13.50;99.90
19930;DHT22;10127;47.780;9.606;2023-11-19T13:13:07;13.40;99.90
19930;DHT22;10127;47.780;9.606;2023-11-19T13:15:34;13.40;99.90
19930;DHT22;10127;47.780;9.606;2023-11-19T13:18:01;13.40;99.90
19930;DHT22;10127;47.780;9.606;2023-11-19T13:20:27;13.40;99.90
19930;DHT22;10127;47.780;9.606;2023-11-19T13:22:57;13.30;99.90
19930;DHT22;10127;47.780;9.606;2023-11-19T13:25:23;13.20;99.90
19930;DHT22;10127;47.780;9.606;2023-11-19T13:27:48;13.30;99.90
19930;DHT22;10127;47.780;9.606;2023-11-19T13:30:15;13.30;99.90
19930;DHT22;10127;47.780;9.606;2023-11-19T13:32:40;13.40;99.90
19930;DHT22;10127;47.780;9.606;2023-11-19T13:35:06;13.40;99.90
19930;DHT22;10127;47.780;9.606;2023-11-19T13:37:34;13.40;99.90
19930;DHT22;10127;47.780;9.606;2023-11-19T13:40:00;13.50;99.90
19930;DHT22;10127;47.780;9.606;2023-11-19T13:42:25;13.50;99.90
19930;DHT22;10127;47.780;9.606;2023-11-19T13:44:51;13.50;99.90
19930;DHT22;10127;47.780;9.606;2023-11-19T13:47:17;13.50;99.90
19930;DHT22;10127;47.780;9.606;2023-11-19T13:49:44;13.50;99.90
19930;DHT22;10127;47.780;9.606;2023-11-19T13:52:10;13.50;99.90
19930;DHT22;10127;47.780;9.606;2023-11-19T13:54:36;13.60;99.90
19930;DHT22;10127;47.780;9.606;2023-11-19T13:57:03;13.60;99.90
19930;DHT22;10127;47.780;9.606;2023-11-19T13:59:30;13.60;99.90
19930;DHT22;10127;47.780;9.606;2023-11-19T14:01:56;13.60;99.90
19930;DHT22;10127;47.780;9.606;2023-11-19T14:04:22;13.60;99.90
19930;DHT22;10127;47.780;9.606;2023-11-19T14:06:47;13.40;99.90
19930;DHT22;10127;47.780;9.606;2023-11-19T14:09:13;13.30;99.90
19930;DHT22;10127;47.780;9.606;2023-11-19T14:11:38;13.30;99.90
19930;DHT22;10127;47.780;9.606;2023-11-19T14:14:04;13.30;99.90
19930;DHT22;10127;47.780;9.606;2023-11-19T14:16:30;13.30;99.90
19930;DHT22;10127;47.780;9.606;2023-11-19T14:18:56;13.20;99.90
19930;DHT22;10127;47.780;9.606;2023-11-19T14:21:22;13.20;99.90
19930;DHT22;10127;47.780;9.606;2023-11-19T14:23:47;13.10;99.90
19930;DHT22;10127;47.780;9.606;2023-11-19T14:26:13;13.10;99.90
19930;DHT22;10127;47.780;9.606;2023-11-19T14:28:38;13.10;99.90
19930;DHT22;10127;47.780;9.606;2023-11-19T14:31:04;13.10;99.90
19930;DHT22;10127;47.780;9.606;2023-11-19T14:33:30;13.10;99.90
19930;DHT22;10127;47.780;9.606;2023-11-19T14:35:56;13.10;99.90
19930;DHT22;10127;47.780;9.606;2023-11-19T14:38:21;13.00;99.90
19930;DHT22;10127;47.780;9.606;2023-11-19T14:40:47;13.10;99.90
19930;DHT22;10127;47.780;9.606;2023-11-19T14:43:13;13.10;99.90
19930;DHT22;10127;47.780;9.606;2023-11-19T14:45:41;13.00;99.90
19930;DHT22;10127;47.780;9.606;2023-11-19T14:48:06;13.00;99.90
19930;DHT22;10127;47.780;9.606;2023-11-19T14:50:32;12.90;99.90
19930;DHT22;10127;47.780;9.606;2023-11-19T14:52:57;12.90;99.90
19930;DHT22;10127;47.780;9.606;2023-11-19T14:55:23;12.90;99.90
19930;DHT22;10127;47.780;9.606;2023-11-19T14:57:49;12.80;99.90
19930;DHT22;10127;47.780;9.606;2023-11-19T15:00:16;12.80;99.90
19930;DHT22;10127;47.780;9.606;2023-11-19T15:02:41;12.70;99.90
19930;DHT22;10127;47.780;9.606;2023-11-19T15:05:08;12.70;99.90
19930;DHT22;10127;47.780;9.606;2023-11-19T15:07:37;12.60;99.90
19930;DHT22;10127;47.780;9.606;2023-11-19T15:10:03;12.50;99.90
19930;DHT22;10127;47.780;9.606;2023-11-19T15:12:29;12.40;99.90
19930;DHT22;10127;47.780;9.606;2023-11-19T15:14:55;12.40;99.90
19930;DHT22;10127;47.780;9.606;2023-11-19T15:17:21;12.30;99.90
19930;DHT22;10127;47.780;9.606;2023-11-19T15:19:47;12.20;99.90
19930;DHT22;10127;47.780;9.606;2023-11-19T15:22:13;12.20;99.90
19930;DHT22;10127;47.780;9.606;2023-11-19T15:24:39;12.20;99.90
19930;DHT22;10127;47.780;9.606;2023-11-19T15:27:07;12.10;99.90
19930;DHT22;10127;47.780;9.606;2023-11-19T15:29:34;12.10;99.90
19930;DHT22;10127;47.780;9.606;2023-11-19T15:32:00;12.10;99.90
19930;DHT22;10127;47.780;9.606;2023-11-19T15:34:26;12.10;99.90
19930;DHT22;10127;47.780;9.606;2023-11-19T15:36:53;12.00;99.90
19930;DHT22;10127;47.780;9.606;2023-11-19T15:39:18;12.00;99.90
19930;DHT22;10127;47.780;9.606;2023-11-19T15:41:44;12.00;99.90
19930;DHT22;10127;47.780;9.606;2023-11-19T15:44:11;11.90;99.90
19930;DHT22;10127;47.780;9.606;2023-11-19T15:46:36;11.90;99.90
19930;DHT22;10127;47.780;9.606;2023-11-19T15:49:05;11.90;99.90
19930;DHT22;10127;47.780;9.606;2023-11-19T15:51:31;11.80;99.90
19930;DHT22;10127;47.780;9.606;2023-11-19T15:53:57;11.80;99.90
19930;DHT22;10127;47.780;9.606;2023-11-19T15:56:22;11.80;99.90
19930;DHT22;10127;47.780;9.606;2023-11-19T15:58:48;11.70;99.90
19930;DHT22;10127;47.780;9.606;2023-11-19T16:01:14;11.60;99.90
19930;DHT22;10127;47.780;9.606;2023-11-19T16:03:39;11.60;99.90
19930;DHT22;10127;47.780;9.606;2023-11-19T16:06:08;11.60;99.90